PWSweather.com
Personal Weather Stations
Station Observations
KKYCRABO2
Cedar Creek Lake 840 Ky. Hwy. 39 N, Crab Orchard, KY 40419

Cedar Creek Lake 840 Ky. Hwy. 39 NCrab Orchard, KY 40419

Lat: 37.4736234544238, Lon: -84.5120286941528

Elevation: 952

Station Type: TYCON Power TP1080WC Pro

http://kbweather.net/

High Low Average
Temperature 94.6°F34.8°F 71.2°F21.8°F 82.9°F28.3°F
Dew Point 90.1°F32.3°F 49.9°F9.9°F 81.1°F27.3°F
Winds 4.5 mph NW7.2 mph NW Calm Calm 0.7 mph 1.1 mph
Wind Gusts 9.8 mph15.8 mph -- 3.1 mph5.0 mph
Humidity 99% 26% 95%
Pressure 29.68 in1005.10 in 29.48 in998.30 in -
Precipitation 0.49 in12.40 in - -
Hour Temp Dew Point Humidity Winds Wind Gusts Pressure Precip Precip Rate Daily Precip Total
12:00 AM 76.6°F24.8°C 76.4°F24.7°C 99% Calm Calm 2.2 mph3.5 kmh 29.58 in1001.7 mb 0.00 in0.0 mm 0.00 in/hr0.0 mm/hr 0.00 in0.0 mm
12:05 AM 76.6°F24.8°C 76.4°F24.7°C 99% Calm Calm 0.7 mph1.1 kmh 29.58 in1001.7 mb 0.00 in0.0 mm 0.00 in/hr0.0 mm/hr 0.00 in0.0 mm
12:10 AM 76.5°F24.7°C 76.2°F24.6°C 99% Calm Calm 0.7 mph1.1 kmh 29.58 in1001.7 mb 0.00 in0.0 mm 0.00 in/hr0.0 mm/hr 0.00 in0.0 mm
12:15 AM 76.3°F24.6°C 76.0°F24.4°C 99% Calm Calm -- 29.58 in1001.7 mb 0.00 in0.0 mm 0.00 in/hr0.0 mm/hr 0.00 in0.0 mm
12:20 AM 76.3°F24.6°C 76.0°F24.4°C 99% Calm Calm -- 29.59 in1002.0 mb 0.00 in0.0 mm 0.00 in/hr0.0 mm/hr 0.00 in0.0 mm
12:25 AM 76.1°F24.5°C 75.9°F24.4°C 99% Calm Calm -- 29.58 in1001.7 mb 0.00 in0.0 mm 0.00 in/hr0.0 mm/hr 0.00 in0.0 mm
12:30 AM 76.1°F24.5°C 75.9°F24.4°C 99% Calm Calm 1.6 mph2.6 kmh 29.59 in1002.0 mb 0.00 in0.0 mm 0.00 in/hr0.0 mm/hr 0.00 in0.0 mm
12:35 AM 76.1°F24.5°C 75.9°F24.4°C 99% Calm Calm 1.6 mph2.6 kmh 29.59 in1002.0 mb 0.00 in0.0 mm 0.00 in/hr0.0 mm/hr 0.00 in0.0 mm
12:40 AM 76.1°F24.5°C 75.9°F24.4°C 99% Calm Calm 1.6 mph2.6 kmh 29.59 in1002.0 mb 0.00 in0.0 mm 0.00 in/hr0.0 mm/hr 0.00 in0.0 mm
12:45 AM 76.1°F24.5°C 75.9°F24.4°C 99% Calm Calm 2.2 mph3.5 kmh 29.59 in1002.0 mb 0.00 in0.0 mm 0.00 in/hr0.0 mm/hr 0.00 in0.0 mm
12:50 AM 76.3°F24.6°C 76.0°F24.4°C 99% 0.7 mph E1.1 kmh E 3.1 mph5.0 kmh 29.59 in1002.0 mb 0.00 in0.0 mm 0.00 in/hr0.0 mm/hr 0.00 in0.0 mm
12:55 AM 76.6°F24.8°C 76.4°F24.7°C 99% Calm Calm 3.1 mph5.0 kmh 29.59 in1002.0 mb 0.00 in0.0 mm 0.00 in/hr0.0 mm/hr 0.00 in0.0 mm
01:00 AM 76.6°F24.8°C 76.4°F24.7°C 99% Calm Calm 1.6 mph2.6 kmh 29.59 in1002.0 mb 0.00 in0.0 mm 0.00 in/hr0.0 mm/hr 0.00 in0.0 mm
01:05 AM 76.5°F24.7°C 76.2°F24.6°C 99% Calm Calm 1.6 mph2.6 kmh 29.59 in1002.0 mb 0.00 in0.0 mm 0.00 in/hr0.0 mm/hr 0.00 in0.0 mm
01:10 AM 76.3°F24.6°C 76.0°F24.4°C 99% Calm Calm 0.7 mph1.1 kmh 29.59 in1002.0 mb 0.00 in0.0 mm 0.00 in/hr0.0 mm/hr 0.00 in0.0 mm
01:15 AM 76.3°F24.6°C 76.0°F24.4°C 99% Calm Calm 1.6 mph2.6 kmh 29.59 in1002.0 mb 0.00 in0.0 mm 0.00 in/hr0.0 mm/hr 0.00 in0.0 mm
01:20 AM 76.3°F24.6°C 76.0°F24.4°C 99% Calm Calm 1.6 mph2.6 kmh 29.60 in1002.4 mb 0.00 in0.0 mm 0.00 in/hr0.0 mm/hr 0.00 in0.0 mm
01:25 AM 76.3°F24.6°C 76.0°F24.4°C 99% Calm Calm 0.7 mph1.1 kmh 29.60 in1002.4 mb 0.00 in0.0 mm 0.00 in/hr0.0 mm/hr 0.00 in0.0 mm
01:30 AM 76.1°F24.5°C 75.9°F24.4°C 99% Calm Calm 0.7 mph1.1 kmh 29.60 in1002.4 mb 0.00 in0.0 mm 0.00 in/hr0.0 mm/hr 0.00 in0.0 mm
01:35 AM 75.9°F24.4°C 75.7°F24.3°C 99% Calm Calm 0.7 mph1.1 kmh 29.60 in1002.4 mb 0.00 in0.0 mm 0.00 in/hr0.0 mm/hr 0.00 in0.0 mm
01:40 AM 75.7°F24.3°C 75.5°F24.2°C 99% Calm Calm -- 29.60 in1002.4 mb 0.00 in0.0 mm 0.00 in/hr0.0 mm/hr 0.00 in0.0 mm
01:45 AM 75.6°F24.2°C 75.3°F24.1°C 99% Calm Calm 0.7 mph1.1 kmh 29.60 in1002.4 mb 0.00 in0.0 mm 0.00 in/hr0.0 mm/hr 0.00 in0.0 mm
01:50 AM 75.6°F24.2°C 75.3°F24.1°C 99% Calm Calm 0.7 mph1.1 kmh 29.60 in1002.4 mb 0.00 in0.0 mm 0.00 in/hr0.0 mm/hr 0.00 in0.0 mm
01:55 AM 75.4°F24.1°C 75.1°F23.9°C 99% Calm Calm 0.7 mph1.1 kmh 29.60 in1002.4 mb 0.00 in0.0 mm 0.00 in/hr0.0 mm/hr 0.00 in0.0 mm
02:00 AM 75.4°F24.1°C 75.1°F23.9°C 99% Calm Calm 0.7 mph1.1 kmh 29.61 in1002.7 mb 0.00 in0.0 mm 0.00 in/hr0.0 mm/hr 0.00 in0.0 mm
02:05 AM 75.4°F24.1°C 75.1°F23.9°C 99% Calm Calm 0.7 mph1.1 kmh 29.61 in1002.7 mb 0.00 in0.0 mm 0.00 in/hr0.0 mm/hr 0.00 in0.0 mm
02:10 AM 75.4°F24.1°C 75.1°F23.9°C 99% Calm Calm 0.7 mph1.1 kmh 29.61 in1002.7 mb 0.00 in0.0 mm 0.00 in/hr0.0 mm/hr 0.00 in0.0 mm
02:15 AM 75.4°F24.1°C 75.1°F23.9°C 99% Calm Calm 3.1 mph5.0 kmh 29.61 in1002.7 mb 0.00 in0.0 mm 0.00 in/hr0.0 mm/hr 0.00 in0.0 mm
02:20 AM 75.4°F24.1°C 75.1°F23.9°C 99% Calm Calm 3.1 mph5.0 kmh 29.61 in1002.7 mb 0.00 in0.0 mm 0.00 in/hr0.0 mm/hr 0.00 in0.0 mm
02:25 AM 75.2°F24.0°C 75.0°F23.9°C 99% Calm Calm 0.7 mph1.1 kmh 29.61 in1002.7 mb 0.00 in0.0 mm 0.00 in/hr0.0 mm/hr 0.00 in0.0 mm
02:30 AM 75.0°F23.9°C 74.8°F23.8°C 99% Calm Calm 0.7 mph1.1 kmh 29.62 in1003.0 mb 0.00 in0.0 mm 0.00 in/hr0.0 mm/hr 0.00 in0.0 mm
02:35 AM 74.7°F23.7°C 74.4°F23.6°C 99% Calm Calm -- 29.61 in1002.7 mb 0.00 in0.0 mm 0.00 in/hr0.0 mm/hr 0.00 in0.0 mm
02:40 AM 74.5°F23.6°C 74.2°F23.4°C 99% Calm Calm -- 29.62 in1003.0 mb 0.00 in0.0 mm 0.00 in/hr0.0 mm/hr 0.00 in0.0 mm
02:45 AM 74.3°F23.5°C 74.1°F23.4°C 99% Calm Calm 0.7 mph1.1 kmh 29.62 in1003.0 mb 0.00 in0.0 mm 0.00 in/hr0.0 mm/hr 0.00 in0.0 mm
02:50 AM 74.3°F23.5°C 74.1°F23.4°C 99% Calm Calm 0.7 mph1.1 kmh 29.62 in1003.0 mb 0.00 in0.0 mm 0.00 in/hr0.0 mm/hr 0.00 in0.0 mm
02:55 AM 74.3°F23.5°C 74.1°F23.4°C 99% Calm Calm 0.7 mph1.1 kmh 29.62 in1003.0 mb 0.00 in0.0 mm 0.00 in/hr0.0 mm/hr 0.00 in0.0 mm
03:00 AM 74.3°F23.5°C 74.1°F23.4°C 99% Calm Calm 0.7 mph1.1 kmh 29.63 in1003.4 mb 0.00 in0.0 mm 0.00 in/hr0.0 mm/hr 0.00 in0.0 mm
03:05 AM 74.3°F23.5°C 74.1°F23.4°C 99% Calm Calm -- 29.63 in1003.4 mb 0.00 in0.0 mm 0.00 in/hr0.0 mm/hr 0.00 in0.0 mm
03:10 AM 74.5°F23.6°C 74.2°F23.4°C 99% Calm Calm -- 29.62 in1003.0 mb 0.00 in0.0 mm 0.00 in/hr0.0 mm/hr 0.00 in0.0 mm
03:15 AM 74.3°F23.5°C 74.1°F23.4°C 99% Calm Calm 0.7 mph1.1 kmh 29.63 in1003.4 mb 0.00 in0.0 mm 0.00 in/hr0.0 mm/hr 0.00 in0.0 mm
03:20 AM 74.3°F23.5°C 74.1°F23.4°C 99% Calm Calm 0.7 mph1.1 kmh 29.63 in1003.4 mb 0.00 in0.0 mm 0.00 in/hr0.0 mm/hr 0.00 in0.0 mm
03:25 AM 74.3°F23.5°C 74.1°F23.4°C 99% Calm Calm 0.7 mph1.1 kmh 29.63 in1003.4 mb 0.00 in0.0 mm 0.00 in/hr0.0 mm/hr 0.00 in0.0 mm
03:30 AM 74.1°F23.4°C 73.9°F23.3°C 99% Calm Calm 0.7 mph1.1 kmh 29.63 in1003.4 mb 0.00 in0.0 mm 0.00 in/hr0.0 mm/hr 0.00 in0.0 mm
03:35 AM 74.1°F23.4°C 73.9°F23.3°C 99% Calm Calm 0.7 mph1.1 kmh 29.64 in1003.7 mb 0.00 in0.0 mm 0.00 in/hr0.0 mm/hr 0.00 in0.0 mm
03:40 AM 74.1°F23.4°C 73.9°F23.3°C 99% Calm Calm -- 29.63 in1003.4 mb 0.00 in0.0 mm 0.00 in/hr0.0 mm/hr 0.00 in0.0 mm
03:45 AM 74.1°F23.4°C 73.9°F23.3°C 99% Calm Calm 0.7 mph1.1 kmh 29.64 in1003.7 mb 0.00 in0.0 mm 0.00 in/hr0.0 mm/hr 0.00 in0.0 mm
03:50 AM 74.1°F23.4°C 73.9°F23.3°C 99% Calm Calm 0.7 mph1.1 kmh 29.64 in1003.7 mb 0.00 in0.0 mm 0.00 in/hr0.0 mm/hr 0.00 in0.0 mm
03:55 AM 74.1°F23.4°C 73.9°F23.3°C 99% Calm Calm 0.7 mph1.1 kmh 29.64 in1003.7 mb 0.00 in0.0 mm 0.00 in/hr0.0 mm/hr 0.00 in0.0 mm
04:00 AM 73.9°F23.3°C 73.7°F23.2°C 99% Calm Calm -- 29.64 in1003.7 mb 0.00 in0.0 mm 0.00 in/hr0.0 mm/hr 0.00 in0.0 mm
04:05 AM 73.9°F23.3°C 73.7°F23.2°C 99% Calm Calm -- 29.64 in1003.7 mb 0.00 in0.0 mm 0.00 in/hr0.0 mm/hr 0.00 in0.0 mm
04:10 AM 73.8°F23.2°C 73.5°F23.1°C 99% Calm Calm 0.7 mph1.1 kmh 29.64 in1003.7 mb 0.00 in0.0 mm 0.00 in/hr0.0 mm/hr 0.00 in0.0 mm
04:15 AM 73.8°F23.2°C 73.5°F23.1°C 99% Calm Calm 0.7 mph1.1 kmh 29.64 in1003.7 mb 0.00 in0.0 mm 0.00 in/hr0.0 mm/hr 0.00 in0.0 mm
04:20 AM 73.6°F23.1°C 73.3°F22.9°C 99% Calm Calm 0.7 mph1.1 kmh 29.64 in1003.7 mb 0.00 in0.0 mm 0.00 in/hr0.0 mm/hr 0.00 in0.0 mm
04:25 AM 73.4°F23.0°C 73.2°F22.9°C 99% Calm Calm 0.7 mph1.1 kmh 29.64 in1003.7 mb 0.00 in0.0 mm 0.00 in/hr0.0 mm/hr 0.00 in0.0 mm
04:30 AM 73.2°F22.9°C 73.0°F22.8°C 99% Calm Calm 0.7 mph1.1 kmh 29.64 in1003.7 mb 0.00 in0.0 mm 0.00 in/hr0.0 mm/hr 0.00 in0.0 mm
04:35 AM 73.0°F22.8°C 72.8°F22.7°C 99% Calm Calm 0.7 mph1.1 kmh 29.64 in1003.7 mb 0.00 in0.0 mm 0.00 in/hr0.0 mm/hr 0.00 in0.0 mm
04:40 AM 72.9°F22.7°C 72.6°F22.6°C 99% Calm Calm -- 29.64 in1003.7 mb 0.00 in0.0 mm 0.00 in/hr0.0 mm/hr 0.00 in0.0 mm
04:45 AM 72.9°F22.7°C 72.6°F22.6°C 99% Calm Calm -- 29.64 in1003.7 mb 0.00 in0.0 mm 0.00 in/hr0.0 mm/hr 0.00 in0.0 mm
04:50 AM 73.0°F22.8°C 72.8°F22.7°C 99% Calm Calm -- 29.65 in1004.1 mb 0.00 in0.0 mm 0.00 in/hr0.0 mm/hr 0.00 in0.0 mm
04:55 AM 73.0°F22.8°C 72.8°F22.7°C 99% Calm Calm 0.7 mph1.1 kmh 29.65 in1004.1 mb 0.00 in0.0 mm 0.00 in/hr0.0 mm/hr 0.00 in0.0 mm
05:00 AM 73.0°F22.8°C 72.8°F22.7°C 99% Calm Calm 0.7 mph1.1 kmh 29.65 in1004.1 mb 0.00 in0.0 mm 0.00 in/hr0.0 mm/hr 0.00 in0.0 mm
05:05 AM 73.0°F22.8°C 72.8°F22.7°C 99% Calm Calm 0.7 mph1.1 kmh 29.65 in1004.1 mb 0.00 in0.0 mm 0.00 in/hr0.0 mm/hr 0.00 in0.0 mm
05:10 AM 73.0°F22.8°C 72.8°F22.7°C 99% Calm Calm 0.7 mph1.1 kmh 29.65 in1004.1 mb 0.00 in0.0 mm 0.00 in/hr0.0 mm/hr 0.00 in0.0 mm
05:15 AM 73.0°F22.8°C 72.8°F22.7°C 99% Calm Calm 0.7 mph1.1 kmh 29.65 in1004.1 mb 0.00 in0.0 mm 0.00 in/hr0.0 mm/hr 0.00 in0.0 mm
05:20 AM 72.9°F22.7°C 72.6°F22.6°C 99% Calm Calm -- 29.65 in1004.1 mb 0.00 in0.0 mm 0.00 in/hr0.0 mm/hr 0.00 in0.0 mm
05:25 AM 72.7°F22.6°C 72.4°F22.4°C 99% Calm Calm -- 29.65 in1004.1 mb 0.00 in0.0 mm 0.00 in/hr0.0 mm/hr 0.00 in0.0 mm
05:30 AM 72.3°F22.4°C 72.1°F22.3°C 99% Calm Calm -- 29.66 in1004.4 mb 0.00 in0.0 mm 0.00 in/hr0.0 mm/hr 0.00 in0.0 mm
05:35 AM 72.1°F22.3°C 71.9°F22.2°C 99% Calm Calm -- 29.65 in1004.1 mb 0.00 in0.0 mm 0.00 in/hr0.0 mm/hr 0.00 in0.0 mm
05:40 AM 72.0°F22.2°C 71.7°F22.1°C 99% Calm Calm -- 29.66 in1004.4 mb 0.00 in0.0 mm 0.00 in/hr0.0 mm/hr 0.00 in0.0 mm
05:45 AM 72.0°F22.2°C 71.7°F22.1°C 99% Calm Calm -- 29.66 in1004.4 mb 0.00 in0.0 mm 0.00 in/hr0.0 mm/hr 0.00 in0.0 mm
05:50 AM 72.0°F22.2°C 71.7°F22.1°C 99% Calm Calm -- 29.66 in1004.4 mb 0.00 in0.0 mm 0.00 in/hr0.0 mm/hr 0.00 in0.0 mm
05:55 AM 72.0°F22.2°C 71.7°F22.1°C 99% Calm Calm -- 29.66 in1004.4 mb 0.00 in0.0 mm 0.00 in/hr0.0 mm/hr 0.00 in0.0 mm
06:00 AM 72.0°F22.2°C 71.7°F22.1°C 99% Calm Calm -- 29.66 in1004.4 mb 0.00 in0.0 mm 0.00 in/hr0.0 mm/hr 0.00 in0.0 mm
06:05 AM 72.0°F22.2°C 71.7°F22.1°C 99% Calm Calm -- 29.66 in1004.4 mb 0.00 in0.0 mm 0.00 in/hr0.0 mm/hr 0.00 in0.0 mm
06:10 AM 72.0°F22.2°C 71.7°F22.1°C 99% Calm Calm -- 29.67 in1004.7 mb 0.00 in0.0 mm 0.00 in/hr0.0 mm/hr 0.00 in0.0 mm
06:15 AM 72.0°F22.2°C 71.7°F22.1°C 99% Calm Calm 0.7 mph1.1 kmh 29.67 in1004.7 mb 0.00 in0.0 mm 0.00 in/hr0.0 mm/hr 0.00 in0.0 mm
06:20 AM 72.0°F22.2°C 71.7°F22.1°C 99% Calm Calm 0.7 mph1.1 kmh 29.67 in1004.7 mb 0.00 in0.0 mm 0.00 in/hr0.0 mm/hr 0.00 in0.0 mm
06:25 AM 72.3°F22.4°C 72.1°F22.3°C 99% Calm Calm 0.7 mph1.1 kmh 29.67 in1004.7 mb 0.00 in0.0 mm 0.00 in/hr0.0 mm/hr 0.00 in0.0 mm
06:30 AM 72.3°F22.4°C 72.1°F22.3°C 99% Calm Calm 0.7 mph1.1 kmh 29.67 in1004.7 mb 0.00 in0.0 mm 0.00 in/hr0.0 mm/hr 0.00 in0.0 mm
06:35 AM 72.3°F22.4°C 72.1°F22.3°C 99% Calm Calm 0.7 mph1.1 kmh 29.67 in1004.7 mb 0.00 in0.0 mm 0.00 in/hr0.0 mm/hr 0.00 in0.0 mm
06:40 AM 72.3°F22.4°C 72.1°F22.3°C 99% Calm Calm 0.7 mph1.1 kmh 29.67 in1004.7 mb 0.00 in0.0 mm 0.00 in/hr0.0 mm/hr 0.00 in0.0 mm
06:45 AM 72.3°F22.4°C 72.1°F22.3°C 99% Calm Calm 0.7 mph1.1 kmh 29.67 in1004.7 mb 0.00 in0.0 mm 0.00 in/hr0.0 mm/hr 0.00 in0.0 mm
06:50 AM 72.1°F22.3°C 71.9°F22.2°C 99% Calm Calm 0.7 mph1.1 kmh 29.67 in1004.7 mb 0.00 in0.0 mm 0.00 in/hr0.0 mm/hr 0.00 in0.0 mm
06:55 AM 72.0°F22.2°C 71.7°F22.1°C 99% Calm Calm -- 29.67 in1004.7 mb 0.00 in0.0 mm 0.00 in/hr0.0 mm/hr 0.00 in0.0 mm
07:00 AM 71.8°F22.1°C 71.5°F21.9°C 99% Calm Calm -- 29.67 in1004.7 mb 0.00 in0.0 mm 0.00 in/hr0.0 mm/hr 0.00 in0.0 mm
07:05 AM 71.8°F22.1°C 71.5°F21.9°C 99% Calm Calm -- 29.68 in1005.1 mb 0.00 in0.0 mm 0.00 in/hr0.0 mm/hr 0.00 in0.0 mm
07:10 AM 71.4°F21.9°C 71.2°F21.8°C 99% Calm Calm -- 29.68 in1005.1 mb 0.00 in0.0 mm 0.00 in/hr0.0 mm/hr 0.00 in0.0 mm
07:15 AM 71.2°F21.8°C 71.0°F21.7°C 99% Calm Calm -- 29.68 in1005.1 mb 0.00 in0.0 mm 0.00 in/hr0.0 mm/hr 0.00 in0.0 mm
07:20 AM 71.2°F21.8°C 71.0°F21.7°C 99% Calm Calm -- 29.68 in1005.1 mb 0.00 in0.0 mm 0.00 in/hr0.0 mm/hr 0.00 in0.0 mm
07:25 AM 72.1°F22.3°C 71.9°F22.2°C 99% Calm Calm 0.7 mph1.1 kmh 29.68 in1005.1 mb 0.00 in0.0 mm 0.00 in/hr0.0 mm/hr 0.00 in0.0 mm
07:30 AM 72.3°F22.4°C 72.1°F22.3°C 99% Calm Calm 0.7 mph1.1 kmh 29.68 in1005.1 mb 0.00 in0.0 mm 0.00 in/hr0.0 mm/hr 0.00 in0.0 mm
07:35 AM 72.5°F22.5°C 72.2°F22.3°C 99% Calm Calm 0.7 mph1.1 kmh 29.68 in1005.1 mb 0.00 in0.0 mm 0.00 in/hr0.0 mm/hr 0.00 in0.0 mm
07:40 AM 72.9°F22.7°C 72.6°F22.6°C 99% Calm Calm 0.7 mph1.1 kmh 29.68 in1005.1 mb 0.00 in0.0 mm 0.00 in/hr0.0 mm/hr 0.00 in0.0 mm
07:45 AM 73.6°F23.1°C 73.3°F22.9°C 99% Calm Calm 0.7 mph1.1 kmh 29.68 in1005.1 mb 0.00 in0.0 mm 0.00 in/hr0.0 mm/hr 0.00 in0.0 mm
07:50 AM 73.9°F23.3°C 73.7°F23.2°C 99% Calm Calm 0.7 mph1.1 kmh 29.68 in1005.1 mb 0.00 in0.0 mm 0.00 in/hr0.0 mm/hr 0.00 in0.0 mm
07:55 AM 73.9°F23.3°C 73.7°F23.2°C 99% Calm Calm 0.7 mph1.1 kmh 29.68 in1005.1 mb 0.00 in0.0 mm 0.00 in/hr0.0 mm/hr 0.00 in0.0 mm
08:00 AM 74.3°F23.5°C 74.1°F23.4°C 99% Calm Calm 0.7 mph1.1 kmh 29.68 in1005.1 mb 0.00 in0.0 mm 0.00 in/hr0.0 mm/hr 0.00 in0.0 mm
08:05 AM 77.0°F25.0°C 76.8°F24.9°C 99% Calm Calm 0.7 mph1.1 kmh 29.68 in1005.1 mb 0.00 in0.0 mm 0.00 in/hr0.0 mm/hr 0.00 in0.0 mm
08:10 AM 77.7°F25.4°C 77.5°F25.3°C 99% Calm Calm 0.7 mph1.1 kmh 29.68 in1005.1 mb 0.00 in0.0 mm 0.00 in/hr0.0 mm/hr 0.00 in0.0 mm
08:15 AM 79.0°F26.1°C 78.7°F25.9°C 99% Calm Calm 0.7 mph1.1 kmh 29.68 in1005.1 mb 0.00 in0.0 mm 0.00 in/hr0.0 mm/hr 0.00 in0.0 mm
08:20 AM 80.8°F27.1°C 80.5°F26.9°C 99% Calm Calm 1.6 mph2.6 kmh 29.68 in1005.1 mb 0.00 in0.0 mm 0.00 in/hr0.0 mm/hr 0.00 in0.0 mm
08:25 AM 82.8°F28.2°C 82.5°F28.1°C 99% Calm Calm 1.6 mph2.6 kmh 29.68 in1005.1 mb 0.00 in0.0 mm 0.00 in/hr0.0 mm/hr 0.00 in0.0 mm
08:30 AM 85.3°F29.6°C 85.1°F29.5°C 99% Calm Calm 1.6 mph2.6 kmh 29.68 in1005.1 mb 0.00 in0.0 mm 0.00 in/hr0.0 mm/hr 0.00 in0.0 mm
08:35 AM 86.4°F30.2°C 86.1°F30.1°C 99% Calm Calm 2.2 mph3.5 kmh 29.68 in1005.1 mb 0.00 in0.0 mm 0.00 in/hr0.0 mm/hr 0.00 in0.0 mm
08:40 AM 86.7°F30.4°C 86.5°F30.3°C 99% Calm Calm 2.2 mph3.5 kmh 29.68 in1005.1 mb 0.00 in0.0 mm 0.00 in/hr0.0 mm/hr 0.00 in0.0 mm
08:45 AM 86.5°F30.3°C 86.3°F30.2°C 99% Calm Calm 2.2 mph3.5 kmh 29.68 in1005.1 mb 0.00 in0.0 mm 0.00 in/hr0.0 mm/hr 0.00 in0.0 mm
08:50 AM 86.2°F30.1°C 86.0°F30.0°C 99% Calm Calm 2.2 mph3.5 kmh 29.68 in1005.1 mb 0.00 in0.0 mm 0.00 in/hr0.0 mm/hr 0.00 in0.0 mm
08:55 AM 85.8°F29.9°C 85.6°F29.8°C 99% 0.7 mph W1.1 kmh W 3.8 mph6.1 kmh 29.68 in1005.1 mb 0.00 in0.0 mm 0.00 in/hr0.0 mm/hr 0.00 in0.0 mm
09:00 AM 84.4°F29.1°C 84.2°F29.0°C 99% Calm Calm 3.8 mph6.1 kmh 29.68 in1005.1 mb 0.00 in0.0 mm 0.00 in/hr0.0 mm/hr 0.00 in0.0 mm
09:05 AM 83.8°F28.8°C 83.6°F28.7°C 99% Calm Calm 3.8 mph6.1 kmh 29.68 in1005.1 mb 0.00 in0.0 mm 0.00 in/hr0.0 mm/hr 0.00 in0.0 mm
09:10 AM 83.7°F28.7°C 83.4°F28.6°C 99% Calm Calm 2.2 mph3.5 kmh 29.68 in1005.1 mb 0.00 in0.0 mm 0.00 in/hr0.0 mm/hr 0.00 in0.0 mm
09:15 AM 83.3°F28.5°C 83.1°F28.4°C 99% Calm Calm 4.5 mph7.2 kmh 29.68 in1005.1 mb 0.00 in0.0 mm 0.00 in/hr0.0 mm/hr 0.00 in0.0 mm
09:20 AM 83.3°F28.5°C 83.1°F28.4°C 99% Calm Calm 4.5 mph7.2 kmh 29.68 in1005.1 mb 0.00 in0.0 mm 0.00 in/hr0.0 mm/hr 0.00 in0.0 mm
09:25 AM 84.2°F29.0°C 84.0°F28.9°C 99% 0.7 mph N1.1 kmh N 3.1 mph5.0 kmh 29.68 in1005.1 mb 0.00 in0.0 mm 0.00 in/hr0.0 mm/hr 0.00 in0.0 mm
09:30 AM 84.7°F29.3°C 84.5°F29.2°C 99% 0.7 mph NE1.1 kmh NE 3.1 mph5.0 kmh 29.68 in1005.1 mb 0.00 in0.0 mm 0.00 in/hr0.0 mm/hr 0.00 in0.0 mm
09:35 AM 86.2°F30.1°C 86.0°F30.0°C 99% Calm Calm 3.1 mph5.0 kmh 29.68 in1005.1 mb 0.00 in0.0 mm 0.00 in/hr0.0 mm/hr 0.00 in0.0 mm
09:40 AM 87.8°F31.0°C 87.6°F30.9°C 99% Calm Calm 2.2 mph3.5 kmh 29.67 in1004.7 mb 0.00 in0.0 mm 0.00 in/hr0.0 mm/hr 0.00 in0.0 mm
09:45 AM 88.5°F31.4°C 87.7°F30.9°C 97% 0.7 mph N1.1 kmh N 2.2 mph3.5 kmh 29.67 in1004.7 mb 0.00 in0.0 mm 0.00 in/hr0.0 mm/hr 0.00 in0.0 mm
09:50 AM 89.6°F32.0°C 87.7°F30.9°C 94% Calm Calm 2.2 mph3.5 kmh 29.67 in1004.7 mb 0.00 in0.0 mm 0.00 in/hr0.0 mm/hr 0.00 in0.0 mm
09:55 AM 90.0°F32.2°C 87.4°F30.8°C 92% 1.6 mph NE2.6 kmh NE 4.5 mph7.2 kmh 29.67 in1004.7 mb 0.00 in0.0 mm 0.00 in/hr0.0 mm/hr 0.00 in0.0 mm
10:00 AM 90.3°F32.4°C 88.8°F31.6°C 95% Calm Calm 4.5 mph7.2 kmh 29.67 in1004.7 mb 0.00 in0.0 mm 0.00 in/hr0.0 mm/hr 0.00 in0.0 mm
10:05 AM 91.6°F33.1°C 89.0°F31.7°C 92% Calm Calm 4.5 mph7.2 kmh 29.67 in1004.7 mb 0.00 in0.0 mm 0.00 in/hr0.0 mm/hr 0.00 in0.0 mm
10:10 AM 93.0°F33.9°C 89.8°F32.1°C 90% 1.6 mph NNE2.6 kmh NNE 3.1 mph5.0 kmh 29.66 in1004.4 mb 0.00 in0.0 mm 0.00 in/hr0.0 mm/hr 0.00 in0.0 mm
10:15 AM 92.8°F33.8°C 88.5°F31.4°C 87% 1.6 mph N2.6 kmh N 3.1 mph5.0 kmh 29.66 in1004.4 mb 0.00 in0.0 mm 0.00 in/hr0.0 mm/hr 0.00 in0.0 mm
10:20 AM 92.1°F33.4°C 88.2°F31.2°C 88% 0.7 mph N1.1 kmh N 3.1 mph5.0 kmh 29.65 in1004.1 mb 0.00 in0.0 mm 0.00 in/hr0.0 mm/hr 0.00 in0.0 mm
10:25 AM 91.6°F33.1°C 88.0°F31.1°C 89% 0.7 mph N1.1 kmh N 3.1 mph5.0 kmh 29.65 in1004.1 mb 0.00 in0.0 mm 0.00 in/hr0.0 mm/hr 0.00 in0.0 mm
10:30 AM 90.9°F32.7°C 88.3°F31.3°C 92% 0.7 mph N1.1 kmh N 3.1 mph5.0 kmh 29.65 in1004.1 mb 0.00 in0.0 mm 0.00 in/hr0.0 mm/hr 0.00 in0.0 mm
10:35 AM 91.0°F32.8°C 87.8°F31.0°C 90% 0.7 mph N1.1 kmh N 3.8 mph6.1 kmh 29.65 in1004.1 mb 0.00 in0.0 mm 0.00 in/hr0.0 mm/hr 0.00 in0.0 mm
10:40 AM 90.5°F32.5°C 87.3°F30.7°C 90% 0.7 mph N1.1 kmh N 5.4 mph8.7 kmh 29.65 in1004.1 mb 0.00 in0.0 mm 0.00 in/hr0.0 mm/hr 0.00 in0.0 mm
10:45 AM 79.2°F26.2°C 76.4°F24.7°C 91% 1.6 mph NNW2.6 kmh NNW 5.4 mph8.7 kmh 29.65 in1004.1 mb 0.00 in0.0 mm 0.00 in/hr0.0 mm/hr 0.00 in0.0 mm
10:50 AM 91.0°F32.8°C 87.5°F30.8°C 89% 0.7 mph N1.1 kmh N 6.0 mph9.7 kmh 29.64 in1003.7 mb 0.00 in0.0 mm 0.00 in/hr0.0 mm/hr 0.00 in0.0 mm
10:55 AM 91.9°F33.3°C 88.0°F31.1°C 88% 1.6 mph N2.6 kmh N 6.0 mph9.7 kmh 29.64 in1003.7 mb 0.00 in0.0 mm 0.00 in/hr0.0 mm/hr 0.00 in0.0 mm
11:00 AM 92.5°F33.6°C 88.2°F31.2°C 87% 1.6 mph NW2.6 kmh NW 4.5 mph7.2 kmh 29.64 in1003.7 mb 0.00 in0.0 mm 0.00 in/hr0.0 mm/hr 0.00 in0.0 mm
11:05 AM 92.5°F33.6°C 88.2°F31.2°C 87% 1.6 mph W2.6 kmh W 4.5 mph7.2 kmh 29.64 in1003.7 mb 0.00 in0.0 mm 0.00 in/hr0.0 mm/hr 0.00 in0.0 mm
11:10 AM 92.7°F33.7°C 88.3°F31.3°C 87% 0.7 mph W1.1 kmh W 4.5 mph7.2 kmh 29.64 in1003.7 mb 0.00 in0.0 mm 0.00 in/hr0.0 mm/hr 0.00 in0.0 mm
11:15 AM 92.5°F33.6°C 88.5°F31.4°C 88% Calm Calm 3.8 mph6.1 kmh 29.64 in1003.7 mb 0.00 in0.0 mm 0.00 in/hr0.0 mm/hr 0.00 in0.0 mm
11:20 AM 91.0°F32.8°C 87.1°F30.6°C 88% 1.6 mph NW2.6 kmh NW 9.8 mph15.8 kmh 29.63 in1003.4 mb 0.00 in0.0 mm 0.00 in/hr0.0 mm/hr 0.00 in0.0 mm
11:25 AM 89.8°F32.1°C 87.2°F30.7°C 92% Calm Calm 9.8 mph15.8 kmh 29.63 in1003.4 mb 0.00 in0.0 mm 0.00 in/hr0.0 mm/hr 0.00 in0.0 mm
11:30 AM 90.0°F32.2°C 87.8°F31.0°C 93% Calm Calm 7.6 mph12.2 kmh 29.63 in1003.4 mb 0.00 in0.0 mm 0.00 in/hr0.0 mm/hr 0.00 in0.0 mm
11:35 AM 91.0°F32.8°C 88.8°F31.6°C 93% Calm Calm 5.4 mph8.7 kmh 29.63 in1003.4 mb 0.00 in0.0 mm 0.00 in/hr0.0 mm/hr 0.00 in0.0 mm
11:40 AM 91.0°F32.8°C 87.8°F31.0°C 90% 0.7 mph N1.1 kmh N 3.8 mph6.1 kmh 29.63 in1003.4 mb 0.00 in0.0 mm 0.00 in/hr0.0 mm/hr 0.00 in0.0 mm
11:45 AM 91.0°F32.8°C 87.5°F30.8°C 89% 0.7 mph N1.1 kmh N 4.5 mph7.2 kmh 29.62 in1003.0 mb 0.00 in0.0 mm 0.00 in/hr0.0 mm/hr 0.00 in0.0 mm
11:50 AM 90.1°F32.3°C 86.9°F30.5°C 90% 0.7 mph N1.1 kmh N 4.5 mph7.2 kmh 29.62 in1003.0 mb 0.00 in0.0 mm 0.00 in/hr0.0 mm/hr 0.00 in0.0 mm
11:55 AM 89.4°F31.9°C 86.9°F30.5°C 92% 0.7 mph N1.1 kmh N 3.1 mph5.0 kmh 29.62 in1003.0 mb 0.00 in0.0 mm 0.00 in/hr0.0 mm/hr 0.00 in0.0 mm
12:00 PM 89.4°F31.9°C 87.2°F30.7°C 93% Calm Calm 3.1 mph5.0 kmh 29.62 in1003.0 mb 0.00 in0.0 mm 0.00 in/hr0.0 mm/hr 0.00 in0.0 mm
12:05 PM 90.5°F32.5°C 89.3°F31.8°C 96% Calm Calm 2.2 mph3.5 kmh 29.62 in1003.0 mb 0.00 in0.0 mm 0.00 in/hr0.0 mm/hr 0.00 in0.0 mm
12:10 PM 91.6°F33.1°C 89.0°F31.7°C 92% 0.7 mph NW1.1 kmh NW 3.1 mph5.0 kmh 29.62 in1003.0 mb 0.00 in0.0 mm 0.00 in/hr0.0 mm/hr 0.00 in0.0 mm
12:15 PM 92.5°F33.6°C 88.5°F31.4°C 88% 2.2 mph NNW3.5 kmh NNW 4.5 mph7.2 kmh 29.62 in1003.0 mb 0.00 in0.0 mm 0.00 in/hr0.0 mm/hr 0.00 in0.0 mm
12:20 PM 92.3°F33.5°C 88.0°F31.1°C 87% 1.6 mph NW2.6 kmh NW 4.5 mph7.2 kmh 29.62 in1003.0 mb 0.00 in0.0 mm 0.00 in/hr0.0 mm/hr 0.00 in0.0 mm
12:25 PM 92.7°F33.7°C 88.0°F31.1°C 86% 2.2 mph NW3.5 kmh NW 5.4 mph8.7 kmh 29.61 in1002.7 mb 0.00 in0.0 mm 0.00 in/hr0.0 mm/hr 0.00 in0.0 mm
12:30 PM 92.7°F33.7°C 88.3°F31.3°C 87% Calm Calm 5.4 mph8.7 kmh 29.62 in1003.0 mb 0.00 in0.0 mm 0.00 in/hr0.0 mm/hr 0.00 in0.0 mm
12:35 PM 92.7°F33.7°C 88.7°F31.5°C 88% 0.7 mph NNE1.1 kmh NNE 5.4 mph8.7 kmh 29.61 in1002.7 mb 0.00 in0.0 mm 0.00 in/hr0.0 mm/hr 0.00 in0.0 mm
12:40 PM 93.6°F34.2°C 89.2°F31.8°C 87% Calm Calm 5.4 mph8.7 kmh 29.61 in1002.7 mb 0.00 in0.0 mm 0.00 in/hr0.0 mm/hr 0.00 in0.0 mm
12:45 PM 93.6°F34.2°C 88.5°F31.4°C 85% 2.2 mph N3.5 kmh N 6.0 mph9.7 kmh 29.61 in1002.7 mb 0.00 in0.0 mm 0.00 in/hr0.0 mm/hr 0.00 in0.0 mm
12:50 PM 93.2°F34.0°C 88.5°F31.4°C 86% 1.6 mph NNE2.6 kmh NNE 6.0 mph9.7 kmh 29.60 in1002.4 mb 0.00 in0.0 mm 0.00 in/hr0.0 mm/hr 0.00 in0.0 mm
12:55 PM 94.1°F34.5°C 90.1°F32.3°C 88% Calm Calm 6.0 mph9.7 kmh 29.60 in1002.4 mb 0.00 in0.0 mm 0.00 in/hr0.0 mm/hr 0.00 in0.0 mm
01:00 PM 94.5°F34.7°C 89.0°F31.7°C 84% 1.6 mph NNW2.6 kmh NNW 4.5 mph7.2 kmh 29.60 in1002.4 mb 0.00 in0.0 mm 0.00 in/hr0.0 mm/hr 0.00 in0.0 mm
01:05 PM 94.5°F34.7°C 89.0°F31.7°C 84% 1.6 mph NW2.6 kmh NW 4.5 mph7.2 kmh 29.60 in1002.4 mb 0.00 in0.0 mm 0.00 in/hr0.0 mm/hr 0.00 in0.0 mm
01:10 PM 92.5°F33.6°C 87.8°F31.0°C 86% 1.6 mph W2.6 kmh W 4.5 mph7.2 kmh 29.59 in1002.0 mb 0.00 in0.0 mm 0.00 in/hr0.0 mm/hr 0.00 in0.0 mm
01:15 PM 91.9°F33.3°C 87.3°F30.7°C 86% 3.1 mph W5.0 kmh W 8.3 mph13.4 kmh 29.59 in1002.0 mb 0.00 in0.0 mm 0.00 in/hr0.0 mm/hr 0.00 in0.0 mm
01:20 PM 90.7°F32.6°C 87.4°F30.8°C 90% 3.1 mph W5.0 kmh W 8.3 mph13.4 kmh 29.58 in1001.7 mb 0.00 in0.0 mm 0.00 in/hr0.0 mm/hr 0.00 in0.0 mm
01:25 PM 90.1°F32.3°C 86.9°F30.5°C 90% 3.1 mph NW5.0 kmh NW 8.3 mph13.4 kmh 29.58 in1001.7 mb 0.00 in0.0 mm 0.00 in/hr0.0 mm/hr 0.00 in0.0 mm
01:30 PM 90.9°F32.7°C 88.0°F31.1°C 91% 3.8 mph NW6.1 kmh NW 6.9 mph11.1 kmh 29.58 in1001.7 mb 0.00 in0.0 mm 0.00 in/hr0.0 mm/hr 0.00 in0.0 mm
01:35 PM 91.2°F32.9°C 88.0°F31.1°C 90% 2.2 mph WNW3.5 kmh WNW 6.9 mph11.1 kmh 29.58 in1001.7 mb 0.00 in0.0 mm 0.00 in/hr0.0 mm/hr 0.00 in0.0 mm
01:40 PM 91.2°F32.9°C 88.0°F31.1°C 90% 3.1 mph WNW5.0 kmh WNW 8.3 mph13.4 kmh 29.57 in1001.4 mb 0.00 in0.0 mm 0.00 in/hr0.0 mm/hr 0.00 in0.0 mm
01:45 PM 92.3°F33.5°C 88.3°F31.3°C 88% 1.6 mph NW2.6 kmh NW 8.3 mph13.4 kmh 29.57 in1001.4 mb 0.00 in0.0 mm 0.00 in/hr0.0 mm/hr 0.00 in0.0 mm
01:50 PM 91.9°F33.3°C 89.0°F31.7°C 91% 0.7 mph NW1.1 kmh NW 8.3 mph13.4 kmh 29.57 in1001.4 mb 0.00 in0.0 mm 0.00 in/hr0.0 mm/hr 0.00 in0.0 mm
01:55 PM 93.4°F34.1°C 89.0°F31.7°C 87% 4.5 mph NNW7.2 kmh NNW 8.3 mph13.4 kmh 29.56 in1001.0 mb 0.00 in0.0 mm 0.00 in/hr0.0 mm/hr 0.00 in0.0 mm
02:00 PM 92.1°F33.4°C 87.8°F31.0°C 87% 3.8 mph NW6.1 kmh NW 8.3 mph13.4 kmh 29.56 in1001.0 mb 0.00 in0.0 mm 0.00 in/hr0.0 mm/hr 0.00 in0.0 mm
02:05 PM 90.3°F32.4°C 86.4°F30.2°C 88% 0.7 mph WNW1.1 kmh WNW 8.3 mph13.4 kmh 29.56 in1001.0 mb 0.00 in0.0 mm 0.00 in/hr0.0 mm/hr 0.00 in0.0 mm
02:10 PM 89.4°F31.9°C 86.9°F30.5°C 92% 2.2 mph WNW3.5 kmh WNW 6.0 mph9.7 kmh 29.56 in1001.0 mb 0.00 in0.0 mm 0.00 in/hr0.0 mm/hr 0.00 in0.0 mm
02:15 PM 88.9°F31.6°C 87.0°F30.6°C 94% 2.2 mph N3.5 kmh N 6.9 mph11.1 kmh 29.55 in1000.7 mb 0.00 in0.0 mm 0.00 in/hr0.0 mm/hr 0.00 in0.0 mm
02:20 PM 88.5°F31.4°C 87.0°F30.6°C 95% 1.6 mph NW2.6 kmh NW 6.9 mph11.1 kmh 29.55 in1000.7 mb 0.00 in0.0 mm 0.00 in/hr0.0 mm/hr 0.00 in0.0 mm
02:25 PM 88.5°F31.4°C 87.0°F30.6°C 95% 4.5 mph WNW7.2 kmh WNW 9.2 mph14.8 kmh 29.55 in1000.7 mb 0.00 in0.0 mm 0.00 in/hr0.0 mm/hr 0.00 in0.0 mm
02:30 PM 88.7°F31.5°C 87.5°F30.8°C 96% 3.1 mph WNW5.0 kmh WNW 9.2 mph14.8 kmh 29.55 in1000.7 mb 0.00 in0.0 mm 0.00 in/hr0.0 mm/hr 0.00 in0.0 mm
02:35 PM 89.6°F32.0°C 89.1°F31.7°C 98% 1.6 mph W2.6 kmh W 9.2 mph14.8 kmh 29.55 in1000.7 mb 0.00 in0.0 mm 0.00 in/hr0.0 mm/hr 0.00 in0.0 mm
02:40 PM 90.7°F32.6°C 88.5°F31.4°C 93% 3.8 mph WNW6.1 kmh WNW 6.9 mph11.1 kmh 29.55 in1000.7 mb 0.00 in0.0 mm 0.00 in/hr0.0 mm/hr 0.00 in0.0 mm
02:45 PM 90.7°F32.6°C 87.8°F31.0°C 91% 1.6 mph NW2.6 kmh NW 8.3 mph13.4 kmh 29.55 in1000.7 mb 0.00 in0.0 mm 0.00 in/hr0.0 mm/hr 0.00 in0.0 mm
02:50 PM 91.0°F32.8°C 88.2°F31.2°C 91% 2.2 mph W3.5 kmh W 8.3 mph13.4 kmh 29.54 in1000.3 mb 0.00 in0.0 mm 0.00 in/hr0.0 mm/hr 0.00 in0.0 mm
02:55 PM 90.9°F32.7°C 87.6°F30.9°C 90% 3.1 mph NW5.0 kmh NW 7.6 mph12.2 kmh 29.54 in1000.3 mb 0.00 in0.0 mm 0.00 in/hr0.0 mm/hr 0.00 in0.0 mm
03:00 PM 91.2°F32.9°C 88.7°F31.5°C 92% 1.6 mph NNW2.6 kmh NNW 7.6 mph12.2 kmh 29.54 in1000.3 mb 0.00 in0.0 mm 0.00 in/hr0.0 mm/hr 0.00 in0.0 mm
03:05 PM 91.9°F33.3°C 89.4°F31.9°C 92% 0.7 mph NW1.1 kmh NW 7.6 mph12.2 kmh 29.54 in1000.3 mb 0.00 in0.0 mm 0.00 in/hr0.0 mm/hr 0.00 in0.0 mm
03:10 PM 92.7°F33.7°C 89.1°F31.7°C 89% 2.2 mph NW3.5 kmh NW 4.5 mph7.2 kmh 29.53 in1000.0 mb 0.00 in0.0 mm 0.00 in/hr0.0 mm/hr 0.00 in0.0 mm
03:15 PM 91.9°F33.3°C 88.0°F31.1°C 88% 3.8 mph N6.1 kmh N 8.3 mph13.4 kmh 29.53 in1000.0 mb 0.00 in0.0 mm 0.00 in/hr0.0 mm/hr 0.00 in0.0 mm
03:20 PM 91.4°F33.0°C 88.2°F31.2°C 90% 1.6 mph N2.6 kmh N 8.3 mph13.4 kmh 29.53 in1000.0 mb 0.00 in0.0 mm 0.00 in/hr0.0 mm/hr 0.00 in0.0 mm
03:25 PM 92.1°F33.4°C 88.2°F31.2°C 88% 3.1 mph NW5.0 kmh NW 8.3 mph13.4 kmh 29.53 in1000.0 mb 0.00 in0.0 mm 0.00 in/hr0.0 mm/hr 0.00 in0.0 mm
03:30 PM 92.8°F33.8°C 89.6°F32.0°C 90% Calm Calm 6.9 mph11.1 kmh 29.53 in1000.0 mb 0.00 in0.0 mm 0.00 in/hr0.0 mm/hr 0.00 in0.0 mm
03:35 PM 92.5°F33.6°C 88.2°F31.2°C 87% 3.8 mph WNW6.1 kmh WNW 6.9 mph11.1 kmh 29.52 in999.7 mb 0.00 in0.0 mm 0.00 in/hr0.0 mm/hr 0.00 in0.0 mm
03:40 PM 91.6°F33.1°C 88.0°F31.1°C 89% 1.6 mph NW2.6 kmh NW 6.9 mph11.1 kmh 29.52 in999.7 mb 0.00 in0.0 mm 0.00 in/hr0.0 mm/hr 0.00 in0.0 mm
03:45 PM 91.2°F32.9°C 88.0°F31.1°C 90% 1.6 mph NW2.6 kmh NW 6.9 mph11.1 kmh 29.52 in999.7 mb 0.00 in0.0 mm 0.00 in/hr0.0 mm/hr 0.00 in0.0 mm
03:50 PM 92.1°F33.4°C 88.9°F31.6°C 90% 1.6 mph NW2.6 kmh NW 4.5 mph7.2 kmh 29.52 in999.7 mb 0.00 in0.0 mm 0.00 in/hr0.0 mm/hr 0.00 in0.0 mm
03:55 PM 91.9°F33.3°C 88.0°F31.1°C 88% Calm Calm 4.5 mph7.2 kmh 29.52 in999.7 mb 0.00 in0.0 mm 0.00 in/hr0.0 mm/hr 0.00 in0.0 mm
04:00 PM 91.4°F33.0°C 87.8°F31.0°C 89% Calm Calm 4.5 mph7.2 kmh 29.52 in999.7 mb 0.00 in0.0 mm 0.00 in/hr0.0 mm/hr 0.00 in0.0 mm
04:05 PM 91.4°F33.0°C 88.2°F31.2°C 90% Calm Calm 3.1 mph5.0 kmh 29.52 in999.7 mb 0.00 in0.0 mm 0.00 in/hr0.0 mm/hr 0.00 in0.0 mm
04:10 PM 92.5°F33.6°C 88.9°F31.6°C 89% 0.7 mph NNW1.1 kmh NNW 4.5 mph7.2 kmh 29.52 in999.7 mb 0.00 in0.0 mm 0.00 in/hr0.0 mm/hr 0.00 in0.0 mm
04:15 PM 93.2°F34.0°C 89.6°F32.0°C 89% 0.7 mph N1.1 kmh N 4.5 mph7.2 kmh 29.52 in999.7 mb 0.00 in0.0 mm 0.00 in/hr0.0 mm/hr 0.00 in0.0 mm
04:20 PM 94.6°F34.8°C 89.2°F31.8°C 84% 2.2 mph N3.5 kmh N 4.5 mph7.2 kmh 29.51 in999.3 mb 0.00 in0.0 mm 0.00 in/hr0.0 mm/hr 0.00 in0.0 mm
04:25 PM 94.6°F34.8°C 88.4°F31.3°C 82% 2.2 mph N3.5 kmh N 5.4 mph8.7 kmh 29.51 in999.3 mb 0.00 in0.0 mm 0.00 in/hr0.0 mm/hr 0.00 in0.0 mm
04:30 PM 93.6°F34.2°C 88.1°F31.2°C 84% 2.2 mph N3.5 kmh N 7.6 mph12.2 kmh 29.51 in999.3 mb 0.00 in0.0 mm 0.00 in/hr0.0 mm/hr 0.00 in0.0 mm
04:35 PM 94.1°F34.5°C 89.0°F31.7°C 85% Calm Calm 7.6 mph12.2 kmh 29.51 in999.3 mb 0.00 in0.0 mm 0.00 in/hr0.0 mm/hr 0.00 in0.0 mm
04:40 PM 93.9°F34.4°C 87.7°F30.9°C 82% 1.6 mph N2.6 kmh N 7.6 mph12.2 kmh 29.50 in999.0 mb 0.00 in0.0 mm 0.00 in/hr0.0 mm/hr 0.00 in0.0 mm
04:45 PM 92.3°F33.5°C 87.2°F30.7°C 85% 2.2 mph N3.5 kmh N 9.8 mph15.8 kmh 29.50 in999.0 mb 0.00 in0.0 mm 0.00 in/hr0.0 mm/hr 0.00 in0.0 mm
04:50 PM 91.4°F33.0°C 86.4°F30.2°C 85% 0.7 mph N1.1 kmh N 9.8 mph15.8 kmh 29.50 in999.0 mb 0.00 in0.0 mm 0.00 in/hr0.0 mm/hr 0.00 in0.0 mm
04:55 PM 91.4°F33.0°C 87.1°F30.6°C 87% 1.6 mph N2.6 kmh N 6.0 mph9.7 kmh 29.50 in999.0 mb 0.00 in0.0 mm 0.00 in/hr0.0 mm/hr 0.00 in0.0 mm
05:00 PM 90.9°F32.7°C 86.6°F30.3°C 87% 3.1 mph WNW5.0 kmh WNW 8.3 mph13.4 kmh 29.50 in999.0 mb 0.00 in0.0 mm 0.00 in/hr0.0 mm/hr 0.00 in0.0 mm
05:05 PM 90.5°F32.5°C 86.2°F30.1°C 87% 4.5 mph W7.2 kmh W 9.8 mph15.8 kmh 29.50 in999.0 mb 0.00 in0.0 mm 0.00 in/hr0.0 mm/hr 0.00 in0.0 mm
05:10 PM 91.0°F32.8°C 87.5°F30.8°C 89% Calm Calm 9.8 mph15.8 kmh 29.50 in999.0 mb 0.00 in0.0 mm 0.00 in/hr0.0 mm/hr 0.00 in0.0 mm
05:15 PM 91.9°F33.3°C 88.0°F31.1°C 88% 0.7 mph W1.1 kmh W 9.8 mph15.8 kmh 29.50 in999.0 mb 0.00 in0.0 mm 0.00 in/hr0.0 mm/hr 0.00 in0.0 mm
05:20 PM 93.0°F33.9°C 88.7°F31.5°C 87% Calm Calm 6.0 mph9.7 kmh 29.49 in998.6 mb 0.00 in0.0 mm 0.00 in/hr0.0 mm/hr 0.00 in0.0 mm
05:25 PM 93.2°F34.0°C 87.8°F31.0°C 84% 3.1 mph NW5.0 kmh NW 6.9 mph11.1 kmh 29.49 in998.6 mb 0.00 in0.0 mm 0.00 in/hr0.0 mm/hr 0.00 in0.0 mm
05:30 PM 92.7°F33.7°C 88.0°F31.1°C 86% 2.2 mph NW3.5 kmh NW 6.9 mph11.1 kmh 29.49 in998.6 mb 0.00 in0.0 mm 0.00 in/hr0.0 mm/hr 0.00 in0.0 mm
05:35 PM 91.9°F33.3°C 86.9°F30.5°C 85% 2.2 mph N3.5 kmh N 6.9 mph11.1 kmh 29.49 in998.6 mb 0.00 in0.0 mm 0.00 in/hr0.0 mm/hr 0.00 in0.0 mm
05:40 PM 91.9°F33.3°C 86.5°F30.3°C 84% 4.5 mph NW7.2 kmh NW 7.6 mph12.2 kmh 29.49 in998.6 mb 0.00 in0.0 mm 0.00 in/hr0.0 mm/hr 0.00 in0.0 mm
05:45 PM 91.9°F33.3°C 86.9°F30.5°C 85% 0.7 mph NW1.1 kmh NW 7.6 mph12.2 kmh 29.49 in998.6 mb 0.00 in0.0 mm 0.00 in/hr0.0 mm/hr 0.00 in0.0 mm
05:50 PM 92.3°F33.5°C 87.6°F30.9°C 86% 2.2 mph NW3.5 kmh NW 7.6 mph12.2 kmh 29.49 in998.6 mb 0.00 in0.0 mm 0.00 in/hr0.0 mm/hr 0.00 in0.0 mm
05:55 PM 92.1°F33.4°C 87.1°F30.6°C 85% 1.6 mph NNW2.6 kmh NNW 6.0 mph9.7 kmh 29.48 in998.3 mb 0.00 in0.0 mm 0.00 in/hr0.0 mm/hr 0.00 in0.0 mm
06:00 PM 92.8°F33.8°C 88.9°F31.6°C 88% Calm Calm 6.0 mph9.7 kmh 29.48 in998.3 mb 0.00 in0.0 mm 0.00 in/hr0.0 mm/hr 0.00 in0.0 mm
06:05 PM 93.6°F34.2°C 88.5°F31.4°C 85% Calm Calm 3.8 mph6.1 kmh 29.48 in998.3 mb 0.00 in0.0 mm 0.00 in/hr0.0 mm/hr 0.00 in0.0 mm
06:10 PM 93.4°F34.1°C 87.6°F30.9°C 83% 2.2 mph N3.5 kmh N 4.5 mph7.2 kmh 29.49 in998.6 mb 0.00 in0.0 mm 0.00 in/hr0.0 mm/hr 0.00 in0.0 mm
06:15 PM 92.8°F33.8°C 87.4°F30.8°C 84% 1.6 mph N2.6 kmh N 4.5 mph7.2 kmh 29.49 in998.6 mb 0.00 in0.0 mm 0.00 in/hr0.0 mm/hr 0.00 in0.0 mm
06:20 PM 92.5°F33.6°C 86.7°F30.4°C 83% 2.2 mph N3.5 kmh N 4.5 mph7.2 kmh 29.49 in998.6 mb 0.00 in0.0 mm 0.00 in/hr0.0 mm/hr 0.00 in0.0 mm
06:25 PM 92.3°F33.5°C 86.9°F30.5°C 84% 2.2 mph NW3.5 kmh NW 4.5 mph7.2 kmh 29.49 in998.6 mb 0.00 in0.0 mm 0.00 in/hr0.0 mm/hr 0.00 in0.0 mm
06:30 PM 92.1°F33.4°C 87.1°F30.6°C 85% 1.6 mph NW2.6 kmh NW 4.5 mph7.2 kmh 29.49 in998.6 mb 0.00 in0.0 mm 0.00 in/hr0.0 mm/hr 0.00 in0.0 mm
06:35 PM 91.9°F33.3°C 86.9°F30.5°C 85% 3.1 mph N5.0 kmh N 5.4 mph8.7 kmh 29.49 in998.6 mb 0.00 in0.0 mm 0.00 in/hr0.0 mm/hr 0.00 in0.0 mm
06:40 PM 90.3°F32.4°C 86.4°F30.2°C 88% 0.7 mph NNW1.1 kmh NNW 6.0 mph9.7 kmh 29.49 in998.6 mb 0.00 in0.0 mm 0.00 in/hr0.0 mm/hr 0.00 in0.0 mm
06:45 PM 89.4°F31.9°C 85.8°F29.9°C 89% 1.6 mph NW2.6 kmh NW 6.0 mph9.7 kmh 29.48 in998.3 mb 0.00 in0.0 mm 0.00 in/hr0.0 mm/hr 0.00 in0.0 mm
06:50 PM 89.2°F31.8°C 49.9°F9.9°C 26% 1.6 mph NW2.6 kmh NW 6.0 mph9.7 kmh 29.48 in998.3 mb 0.00 in0.0 mm 0.00 in/hr0.0 mm/hr 0.00 in0.0 mm
06:55 PM 89.1°F31.7°C 85.5°F29.7°C 89% Calm Calm 4.5 mph7.2 kmh 29.48 in998.3 mb 0.00 in0.0 mm 0.00 in/hr0.0 mm/hr 0.00 in0.0 mm
07:00 PM 88.9°F31.6°C 86.0°F30.0°C 91% 2.2 mph NNE3.5 kmh NNE 4.5 mph7.2 kmh 29.48 in998.3 mb 0.00 in0.0 mm 0.00 in/hr0.0 mm/hr 0.00 in0.0 mm
07:05 PM 88.7°F31.5°C 85.8°F29.9°C 91% 2.2 mph N3.5 kmh N 4.5 mph7.2 kmh 29.48 in998.3 mb 0.00 in0.0 mm 0.00 in/hr0.0 mm/hr 0.00 in0.0 mm
07:10 PM 88.2°F31.2°C 86.0°F30.0°C 93% 1.6 mph N2.6 kmh N 6.0 mph9.7 kmh 29.48 in998.3 mb 0.00 in0.0 mm 0.00 in/hr0.0 mm/hr 0.00 in0.0 mm
07:15 PM 87.6°F30.9°C 85.4°F29.7°C 93% 1.6 mph NNW2.6 kmh NNW 6.0 mph9.7 kmh 29.48 in998.3 mb 0.00 in0.0 mm 0.00 in/hr0.0 mm/hr 0.00 in0.0 mm
07:20 PM 87.4°F30.8°C 85.6°F29.8°C 94% 1.6 mph NNW2.6 kmh NNW 4.5 mph7.2 kmh 29.48 in998.3 mb 0.00 in0.0 mm 0.00 in/hr0.0 mm/hr 0.00 in0.0 mm
07:25 PM 87.4°F30.8°C 85.9°F29.9°C 95% Calm Calm 4.5 mph7.2 kmh 29.48 in998.3 mb 0.00 in0.0 mm 0.00 in/hr0.0 mm/hr 0.00 in0.0 mm
07:30 PM 87.3°F30.7°C 85.7°F29.8°C 95% 0.7 mph NNE1.1 kmh NNE 4.5 mph7.2 kmh 29.48 in998.3 mb 0.00 in0.0 mm 0.00 in/hr0.0 mm/hr 0.00 in0.0 mm
07:35 PM 87.1°F30.6°C 85.9°F29.9°C 96% 0.7 mph N1.1 kmh N 2.2 mph3.5 kmh 29.48 in998.3 mb 0.00 in0.0 mm 0.00 in/hr0.0 mm/hr 0.00 in0.0 mm
07:40 PM 86.5°F30.3°C 85.4°F29.7°C 96% 1.6 mph N2.6 kmh N 3.8 mph6.1 kmh 29.48 in998.3 mb 0.00 in0.0 mm 0.00 in/hr0.0 mm/hr 0.00 in0.0 mm
07:45 PM 86.2°F30.1°C 85.3°F29.6°C 97% 0.7 mph N1.1 kmh N 4.5 mph7.2 kmh 29.49 in998.6 mb 0.00 in0.0 mm 0.00 in/hr0.0 mm/hr 0.00 in0.0 mm
07:50 PM 85.8°F29.9°C 85.6°F29.8°C 99% 0.7 mph N1.1 kmh N 4.5 mph7.2 kmh 29.49 in998.6 mb 0.00 in0.0 mm 0.00 in/hr0.0 mm/hr 0.00 in0.0 mm
07:55 PM 85.5°F29.7°C 85.2°F29.6°C 99% Calm Calm 3.8 mph6.1 kmh 29.49 in998.6 mb 0.00 in0.0 mm 0.00 in/hr0.0 mm/hr 0.00 in0.0 mm
08:00 PM 84.9°F29.4°C 84.7°F29.3°C 99% 0.7 mph NNE1.1 kmh NNE 3.8 mph6.1 kmh 29.48 in998.3 mb 0.00 in0.0 mm 0.00 in/hr0.0 mm/hr 0.00 in0.0 mm
08:05 PM 84.9°F29.4°C 84.7°F29.3°C 99% 0.7 mph N1.1 kmh N 2.2 mph3.5 kmh 29.49 in998.6 mb 0.00 in0.0 mm 0.00 in/hr0.0 mm/hr 0.00 in0.0 mm
08:10 PM 84.4°F29.1°C 84.2°F29.0°C 99% Calm Calm 2.2 mph3.5 kmh 29.48 in998.3 mb 0.00 in0.0 mm 0.00 in/hr0.0 mm/hr 0.00 in0.0 mm
08:15 PM 83.8°F28.8°C 83.6°F28.7°C 99% Calm Calm 3.1 mph5.0 kmh 29.48 in998.3 mb 0.00 in0.0 mm 0.00 in/hr0.0 mm/hr 0.00 in0.0 mm
08:20 PM 83.7°F28.7°C 83.4°F28.6°C 99% Calm Calm 3.1 mph5.0 kmh 29.48 in998.3 mb 0.00 in0.0 mm 0.00 in/hr0.0 mm/hr 0.00 in0.0 mm
08:25 PM 83.3°F28.5°C 83.1°F28.4°C 99% Calm Calm 3.1 mph5.0 kmh 29.48 in998.3 mb 0.00 in0.0 mm 0.00 in/hr0.0 mm/hr 0.00 in0.0 mm
08:30 PM 82.9°F28.3°C 82.7°F28.2°C 99% Calm Calm 3.1 mph5.0 kmh 29.48 in998.3 mb 0.00 in0.0 mm 0.00 in/hr0.0 mm/hr 0.00 in0.0 mm
08:35 PM 82.8°F28.2°C 82.5°F28.1°C 99% Calm Calm 2.2 mph3.5 kmh 29.48 in998.3 mb 0.00 in0.0 mm 0.00 in/hr0.0 mm/hr 0.00 in0.0 mm
08:40 PM 82.4°F28.0°C 82.2°F27.9°C 99% Calm Calm 9.8 mph15.8 kmh 29.49 in998.6 mb 0.00 in0.0 mm 0.00 in/hr0.0 mm/hr 0.00 in0.0 mm
08:45 PM 82.0°F27.8°C 81.8°F27.7°C 99% Calm Calm 9.8 mph15.8 kmh 29.49 in998.6 mb 0.00 in0.0 mm 0.00 in/hr0.0 mm/hr 0.00 in0.0 mm
08:50 PM 81.7°F27.6°C 81.5°F27.5°C 99% Calm Calm 0.7 mph1.1 kmh 29.49 in998.6 mb 0.00 in0.0 mm 0.00 in/hr0.0 mm/hr 0.00 in0.0 mm
08:55 PM 81.5°F27.5°C 81.3°F27.4°C 99% Calm Calm 0.7 mph1.1 kmh 29.49 in998.6 mb 0.00 in0.0 mm 0.00 in/hr0.0 mm/hr 0.00 in0.0 mm
09:00 PM 81.1°F27.3°C 80.9°F27.2°C 99% Calm Calm 0.7 mph1.1 kmh 29.49 in998.6 mb 0.00 in0.0 mm 0.00 in/hr0.0 mm/hr 0.00 in0.0 mm
09:05 PM 80.8°F27.1°C 80.5°F26.9°C 99% Calm Calm 0.7 mph1.1 kmh 29.50 in999.0 mb 0.00 in0.0 mm 0.00 in/hr0.0 mm/hr 0.00 in0.0 mm
09:10 PM 80.6°F27.0°C 80.4°F26.9°C 99% Calm Calm -- 29.50 in999.0 mb 0.00 in0.0 mm 0.00 in/hr0.0 mm/hr 0.00 in0.0 mm
09:15 PM 80.4°F26.9°C 80.2°F26.8°C 99% Calm Calm 0.7 mph1.1 kmh 29.50 in999.0 mb 0.00 in0.0 mm 0.00 in/hr0.0 mm/hr 0.00 in0.0 mm
09:20 PM 80.2°F26.8°C 80.0°F26.7°C 99% Calm Calm 0.7 mph1.1 kmh 29.50 in999.0 mb 0.00 in0.0 mm 0.00 in/hr0.0 mm/hr 0.00 in0.0 mm
09:25 PM 80.2°F26.8°C 80.0°F26.7°C 99% Calm Calm 0.7 mph1.1 kmh 29.50 in999.0 mb 0.00 in0.0 mm 0.00 in/hr0.0 mm/hr 0.00 in0.0 mm
09:30 PM 80.1°F26.7°C 79.8°F26.6°C 99% Calm Calm 0.7 mph1.1 kmh 29.50 in999.0 mb 0.00 in0.0 mm 0.00 in/hr0.0 mm/hr 0.00 in0.0 mm
09:35 PM 79.9°F26.6°C 79.6°F26.4°C 99% Calm Calm -- 29.50 in999.0 mb 0.00 in0.0 mm 0.00 in/hr0.0 mm/hr 0.00 in0.0 mm
09:40 PM 79.9°F26.6°C 79.6°F26.4°C 99% Calm Calm -- 29.50 in999.0 mb 0.00 in0.0 mm 0.00 in/hr0.0 mm/hr 0.00 in0.0 mm
09:45 PM 79.7°F26.5°C 79.5°F26.4°C 99% Calm Calm -- 29.50 in999.0 mb 0.00 in0.0 mm 0.00 in/hr0.0 mm/hr 0.00 in0.0 mm
09:50 PM 79.5°F26.4°C 79.3°F26.3°C 99% Calm Calm -- 29.50 in999.0 mb 0.00 in0.0 mm 0.00 in/hr0.0 mm/hr 0.00 in0.0 mm
09:55 PM 79.5°F26.4°C 79.3°F26.3°C 99% Calm Calm -- 29.50 in999.0 mb 0.00 in0.0 mm 0.00 in/hr0.0 mm/hr 0.00 in0.0 mm
10:00 PM 79.5°F26.4°C 79.3°F26.3°C 99% Calm Calm -- 29.50 in999.0 mb 0.00 in0.0 mm 0.00 in/hr0.0 mm/hr 0.00 in0.0 mm
10:05 PM 79.5°F26.4°C 79.3°F26.3°C 99% Calm Calm -- 29.50 in999.0 mb 0.00 in0.0 mm 0.00 in/hr0.0 mm/hr 0.00 in0.0 mm
10:10 PM 79.3°F26.3°C 79.1°F26.2°C 99% Calm Calm -- 29.50 in999.0 mb 0.00 in0.0 mm 0.00 in/hr0.0 mm/hr 0.00 in0.0 mm
10:15 PM 79.2°F26.2°C 78.9°F26.1°C 99% Calm Calm -- 29.51 in999.3 mb 0.00 in0.0 mm 0.00 in/hr0.0 mm/hr 0.00 in0.0 mm
10:20 PM 78.8°F26.0°C 78.6°F25.9°C 99% Calm Calm -- 29.51 in999.3 mb 0.00 in0.0 mm 0.00 in/hr0.0 mm/hr 0.00 in0.0 mm
10:25 PM 78.4°F25.8°C 78.2°F25.7°C 99% Calm Calm -- 29.51 in999.3 mb 0.00 in0.0 mm 0.00 in/hr0.0 mm/hr 0.00 in0.0 mm
10:30 PM 78.1°F25.6°C 77.8°F25.4°C 99% Calm Calm -- 29.51 in999.3 mb 0.00 in0.0 mm 0.00 in/hr0.0 mm/hr 0.00 in0.0 mm
10:35 PM 78.1°F25.6°C 77.8°F25.4°C 99% Calm Calm -- 29.51 in999.3 mb 0.00 in0.0 mm 0.00 in/hr0.0 mm/hr 0.00 in0.0 mm
10:40 PM 77.9°F25.5°C 77.7°F25.4°C 99% Calm Calm -- 29.51 in999.3 mb 0.00 in0.0 mm 0.00 in/hr0.0 mm/hr 0.00 in0.0 mm
10:45 PM 77.7°F25.4°C 77.5°F25.3°C 99% Calm Calm -- 29.51 in999.3 mb 0.00 in0.0 mm 0.00 in/hr0.0 mm/hr 0.00 in0.0 mm
10:50 PM 77.7°F25.4°C 77.5°F25.3°C 99% Calm Calm 0.7 mph1.1 kmh 29.52 in999.7 mb 0.00 in0.0 mm 0.00 in/hr0.0 mm/hr 0.00 in0.0 mm
10:55 PM 77.5°F25.3°C 77.3°F25.2°C 99% Calm Calm 0.7 mph1.1 kmh 29.52 in999.7 mb 0.01 in0.3 mm 0.12 in/hr3.0 mm/hr 0.01 in0.3 mm
11:00 PM 77.4°F25.2°C 77.1°F25.1°C 99% Calm Calm 0.7 mph1.1 kmh 29.52 in999.7 mb 0.02 in0.5 mm 0.01 in/hr0.3 mm/hr 0.02 in0.5 mm
11:05 PM 77.4°F25.2°C 77.1°F25.1°C 99% Calm Calm -- 29.52 in999.7 mb 0.02 in0.5 mm 0.00 in/hr0.0 mm/hr 0.02 in0.5 mm
11:10 PM 76.8°F24.9°C 76.6°F24.8°C 99% Calm Calm -- 29.52 in999.7 mb 0.04 in1.0 mm 0.24 in/hr6.1 mm/hr 0.04 in1.0 mm
11:15 PM 76.6°F24.8°C 76.4°F24.7°C 99% Calm Calm -- 29.52 in999.7 mb 0.04 in1.0 mm 0.00 in/hr0.0 mm/hr 0.04 in1.0 mm
11:20 PM 76.5°F24.7°C 76.2°F24.6°C 99% Calm Calm -- 29.52 in999.7 mb 0.04 in1.0 mm 0.00 in/hr0.0 mm/hr 0.04 in1.0 mm
11:25 PM 76.3°F24.6°C 76.0°F24.4°C 99% Calm Calm 1.6 mph2.6 kmh 29.52 in999.7 mb 0.04 in1.0 mm 0.00 in/hr0.0 mm/hr 0.04 in1.0 mm
11:30 PM 76.1°F24.5°C 75.9°F24.4°C 99% Calm Calm 1.6 mph2.6 kmh 29.52 in999.7 mb 0.04 in1.0 mm 0.00 in/hr0.0 mm/hr 0.04 in1.0 mm
11:35 PM 76.1°F24.5°C 75.9°F24.4°C 99% Calm Calm 1.6 mph2.6 kmh 29.52 in999.7 mb 0.05 in1.3 mm 0.12 in/hr3.0 mm/hr 0.05 in1.3 mm
11:40 PM 75.9°F24.4°C 75.7°F24.3°C 99% Calm Calm 1.6 mph2.6 kmh 29.53 in1000.0 mb 0.05 in1.3 mm 0.00 in/hr0.0 mm/hr 0.05 in1.3 mm
11:45 PM 75.9°F24.4°C 75.7°F24.3°C 99% Calm Calm 0.7 mph1.1 kmh 29.53 in1000.0 mb 0.05 in1.3 mm 0.00 in/hr0.0 mm/hr 0.05 in1.3 mm
11:50 PM 75.7°F24.3°C 75.5°F24.2°C 99% Calm Calm -- 29.53 in1000.0 mb 0.05 in1.3 mm 0.00 in/hr0.0 mm/hr 0.05 in1.3 mm
11:55 PM 75.7°F24.3°C 75.5°F24.2°C 99% Calm Calm -- 29.53 in1000.0 mb 0.04 in1.0 mm 0.00 in/hr0.0 mm/hr 0.05 in1.3 mm